Time;durP1;ratioP1;P1;durP2;ratioP2;P2;SDS_P1;SDS_P2;PMS_P1;PMS_P2;Temp;Humidity;BMP_temperature;BMP_pressure;BME280_temperature;BME280_humidity;BME280_pressure;Samples;Min_cycle;Max_cycle;Signal;HPM_P1;HPM_P2
2023/06/10 00:00:24;;;;;;;2.75;2.55;;;27.60;36.90;;;;;;5061010;28;45312;-69
2023/06/10 00:02:51;;;;;;;2.38;2.17;;;27.50;36.90;;;;;;5065263;28;45209;-69
2023/06/10 00:05:20;;;;;;;2.50;2.30;;;27.50;36.90;;;;;;5059176;28;48685;-68
2023/06/10 00:07:48;;;;;;;2.72;2.53;;;27.50;36.80;;;;;;5046542;28;45326;-68
2023/06/10 00:10:15;;;;;;;2.67;2.47;;;27.50;37.10;;;;;;5047269;28;45250;-69
2023/06/10 00:12:43;;;;;;;2.45;2.10;;;27.50;37.20;;;;;;5046456;28;45439;-70
2023/06/10 00:15:11;;;;;;;2.67;2.40;;;27.40;37.30;;;;;;5046686;28;48568;-69
2023/06/10 00:17:40;;;;;;;2.25;2.08;;;27.40;37.30;;;;;;5063553;28;45265;-69
2023/06/10 00:20:10;;;;;;;2.70;2.50;;;27.50;37.40;;;;;;5066502;28;45446;-69
2023/06/10 00:22:39;;;;;;;2.83;2.03;;;27.40;38.10;;;;;;5065626;28;45304;-69
2023/06/10 00:25:06;;;;;;;2.63;2.42;;;27.40;37.50;;;;;;5065724;28;46876;-69
2023/06/10 00:27:35;;;;;;;2.33;2.13;;;27.40;37.50;;;;;;5067889;28;45407;-69
2023/06/10 00:30:04;;;;;;;2.42;2.22;;;27.30;37.40;;;;;;5065019;28;45367;-68
2023/06/10 00:32:31;;;;;;;2.60;2.40;;;27.40;37.40;;;;;;5066228;28;45372;-69
2023/06/10 00:34:59;;;;;;;2.00;1.90;;;27.30;37.50;;;;;;5052547;28;46403;-70
2023/06/10 00:37:26;;;;;;;2.97;2.40;;;27.30;37.50;;;;;;5066020;28;45319;-70
2023/06/10 00:39:53;;;;;;;4.07;2.60;;;27.30;37.70;;;;;;5065631;28;45273;-70
2023/06/10 00:42:22;;;;;;;3.45;2.30;;;27.30;37.80;;;;;;5066338;28;45447;-70
2023/06/10 00:44:49;;;;;;;2.08;1.98;;;27.20;37.70;;;;;;5065663;28;46538;-69
2023/06/10 00:47:16;;;;;;;2.50;2.30;;;27.20;38.40;;;;;;5065789;28;45316;-70
2023/06/10 00:49:42;;;;;;;2.38;2.22;;;27.20;37.70;;;;;;5066174;28;45396;-70
2023/06/10 00:52:11;;;;;;;3.35;2.38;;;27.20;37.70;;;;;;5066041;28;45312;-69
2023/06/10 00:54:38;;;;;;;2.38;2.08;;;27.20;37.80;;;;;;5065781;28;45524;-69
2023/06/10 00:57:06;;;;;;;2.50;2.13;;;27.10;37.80;;;;;;5065606;28;45377;-70
2023/06/10 00:59:32;;;;;;;2.58;2.38;;;27.10;37.80;;;;;;5065878;28;45352;-68
2023/06/10 01:02:00;;;;;;;2.10;2.00;;;27.10;37.80;;;;;;5066091;28;45248;-69
2023/06/10 01:04:27;;;;;;;2.63;2.42;;;27.10;37.80;;;;;;5045659;28;46695;-71
2023/06/10 01:06:58;;;;;;;3.25;2.47;;;27.10;37.90;;;;;;5042957;28;45245;-70
2023/06/10 01:09:31;;;;;;;2.47;2.28;;;27.00;37.90;;;;;;5045677;28;45175;-71
2023/06/10 01:12:02;;;;;;;2.15;2.05;;;27.00;37.90;;;;;;5045790;28;45307;-70
2023/06/10 01:14:31;;;;;;;2.15;2.05;;;27.00;38.00;;;;;;5045275;28;46383;-70
2023/06/10 01:17:00;;;;;;;2.42;2.22;;;27.00;38.00;;;;;;5045593;28;45250;-71
2023/06/10 01:19:28;;;;;;;2.88;2.40;;;27.00;38.00;;;;;;5045410;28;45391;-71
2023/06/10 01:21:56;;;;;;;2.50;2.30;;;27.00;38.10;;;;;;5045688;28;45417;-71
2023/06/10 01:24:23;;;;;;;2.13;1.98;;;26.90;38.10;;;;;;5044865;28;45537;-70
2023/06/10 01:26:50;;;;;;;3.38;2.20;;;26.90;38.10;;;;;;5045348;28;45282;-71
2023/06/10 01:29:19;;;;;;;2.38;2.17;;;26.90;38.10;;;;;;5045233;28;45294;-71
2023/06/10 01:31:49;;;;;;;2.53;2.33;;;26.90;38.10;;;;;;5045036;28;45430;-71
2023/06/10 01:34:18;;;;;;;2.53;2.33;;;26.90;38.10;;;;;;5044745;28;46693;-72
2023/06/10 01:36:47;;;;;;;2.60;2.40;;;26.80;38.10;;;;;;5045521;28;45510;-72
2023/06/10 01:39:18;;;;;;;3.05;2.47;;;26.80;38.10;;;;;;5045132;28;45267;-71
2023/06/10 01:41:45;;;;;;;2.67;2.40;;;26.80;38.20;;;;;;5045643;28;45473;-71
2023/06/10 01:44:12;;;;;;;2.20;2.10;;;26.80;38.10;;;;;;5045086;28;46423;-70
2023/06/10 01:46:39;;;;;;;2.45;2.25;;;26.80;38.20;;;;;;5045137;28;45265;-71
2023/06/10 01:49:06;;;;;;;2.50;2.30;;;26.70;38.10;;;;;;5045476;28;45218;-70
2023/06/10 01:51:33;;;;;;;2.83;2.30;;;26.70;38.20;;;;;;5045427;28;45352;-69
2023/06/10 01:54:00;;;;;;;2.47;2.15;;;26.70;38.10;;;;;;5042298;28;46146;-72
2023/06/10 01:56:28;;;;;;;2.17;2.00;;;26.70;38.20;;;;;;5045215;28;45400;-69
2023/06/10 01:58:58;;;;;;;2.40;2.20;;;26.70;38.20;;;;;;5045076;28;45308;-69
2023/06/10 02:01:25;;;;;;;2.30;2.10;;;26.60;38.10;;;;;;5045384;28;45558;-71
2023/06/10 02:03:55;;;;;;;2.00;1.90;;;26.60;38.10;;;;;;5060380;28;45471;-70
2023/06/10 02:06:22;;;;;;;2.55;2.03;;;26.60;38.10;;;;;;5065272;28;45253;-70
2023/06/10 02:08:49;;;;;;;2.50;2.30;;;26.60;38.10;;;;;;5065409;28;45417;-70
2023/06/10 02:11:16;;;;;;;3.40;2.35;;;26.60;38.20;;;;;;5068852;28;45486;-70
2023/06/10 02:13:44;;;;;;;2.58;2.22;;;26.50;38.10;;;;;;5068507;28;46434;-70
2023/06/10 02:16:12;;;;;;;2.40;2.15;;;26.50;38.20;;;;;;5068587;28;45181;-70
2023/06/10 02:18:40;;;;;;;3.50;2.30;;;26.50;38.20;;;;;;5068715;28;45327;-70
2023/06/10 02:21:07;;;;;;;2.60;2.40;;;26.50;38.20;;;;;;5068866;28;45355;-70
2023/06/10 02:23:36;;;;;;;2.50;2.30;;;26.50;38.40;;;;;;5067738;28;46648;-70
2023/06/10 02:26:03;;;;;;;2.55;2.35;;;26.50;38.20;;;;;;5068009;28;45300;-69
2023/06/10 02:28:30;;;;;;;2.22;2.13;;;26.40;38.20;;;;;;5068560;28;45353;-70
2023/06/10 02:30:58;;;;;;;2.38;2.13;;;26.40;38.20;;;;;;5068712;28;45313;-70
2023/06/10 02:33:27;;;;;;;2.50;2.30;;;26.40;38.20;;;;;;5068294;28;45377;-70
2023/06/10 02:35:54;;;;;;;2.30;2.20;;;26.40;38.20;;;;;;5068633;28;45403;-70
2023/06/10 02:38:22;;;;;;;2.50;2.30;;;26.40;38.50;;;;;;5068455;28;45473;-70
2023/06/10 02:40:49;;;;;;;2.50;2.30;;;26.40;38.20;;;;;;5068207;28;45494;-69
2023/06/10 02:43:16;;;;;;;2.75;2.55;;;26.30;38.30;;;;;;5067898;28;45344;-70
2023/06/10 02:45:43;;;;;;;1.90;1.80;;;26.30;38.30;;;;;;5068012;28;45653;-69
2023/06/10 02:48:11;;;;;;;2.55;2.35;;;26.30;38.30;;;;;;5068067;28;45392;-70
2023/06/10 02:50:39;;;;;;;2.47;2.28;;;26.20;38.20;;;;;;5068320;28;45719;-70
2023/06/10 02:53:06;;;;;;;2.60;2.40;;;26.20;38.20;;;;;;5067829;28;45436;-71
2023/06/10 02:55:33;;;;;;;2.58;2.38;;;26.20;38.20;;;;;;5067838;28;45276;-69
2023/06/10 02:58:00;;;;;;;3.08;2.60;;;26.20;38.20;;;;;;5068095;28;45375;-69
2023/06/10 03:00:29;;;;;;;2.35;2.15;;;26.20;38.30;;;;;;5068090;28;45402;-70
2023/06/10 03:02:57;;;;;;;2.47;2.28;;;26.10;38.20;;;;;;5067407;28;46675;-70
2023/06/10 03:05:25;;;;;;;2.33;2.10;;;26.10;38.30;;;;;;5067649;28;45463;-69
2023/06/10 03:07:52;;;;;;;2.38;2.17;;;26.10;38.30;;;;;;5067198;28;45352;-69
2023/06/10 03:10:19;;;;;;;2.45;2.25;;;26.10;38.30;;;;;;5067381;28;45452;-70
2023/06/10 03:12:46;;;;;;;2.08;1.98;;;26.10;38.30;;;;;;5066846;28;45370;-70
2023/06/10 03:15:13;;;;;;;2.38;2.20;;;26.00;38.30;;;;;;5066837;28;45366;-70
2023/06/10 03:17:39;;;;;;;2.10;2.00;;;26.00;38.30;;;;;;5067217;28;45374;-69
2023/06/10 03:20:10;;;;;;;2.10;2.00;;;26.00;38.30;;;;;;5066871;28;45362;-70
2023/06/10 03:22:38;;;;;;;2.45;2.30;;;26.00;38.40;;;;;;5065893;28;45256;-70
2023/06/10 03:25:13;;;;;;;2.30;2.10;;;26.00;38.40;;;;;;5066751;28;45328;-70
2023/06/10 03:27:40;;;;;;;2.33;2.13;;;26.00;38.40;;;;;;5066812;28;45351;-69
2023/06/10 03:30:08;;;;;;;2.55;2.35;;;26.00;38.40;;;;;;5066851;28;45369;-70
2023/06/10 03:32:35;;;;;;;2.35;2.15;;;25.90;38.40;;;;;;5067046;28;46365;-70
2023/06/10 03:35:02;;;;;;;2.58;2.33;;;25.90;38.40;;;;;;5066545;28;45321;-70
2023/06/10 03:37:29;;;;;;;2.70;2.50;;;25.90;38.50;;;;;;5066626;28;45409;-70
2023/06/10 03:39:57;;;;;;;2.03;1.92;;;25.80;38.40;;;;;;5066837;28;45320;-70
2023/06/10 03:42:27;;;;;;;2.50;2.30;;;25.90;38.50;;;;;;5066400;28;46295;-69
2023/06/10 03:44:53;;;;;;;2.35;2.17;;;25.80;38.50;;;;;;5066592;28;45473;-70
2023/06/10 03:47:21;;;;;;;2.28;2.10;;;25.80;38.50;;;;;;5066345;28;45386;-70
2023/06/10 03:49:47;;;;;;;2.25;2.05;;;25.80;38.50;;;;;;5066599;28;45404;-71
2023/06/10 03:52:14;;;;;;;2.45;2.25;;;25.80;38.50;;;;;;5066219;28;45408;-69
2023/06/10 03:54:41;;;;;;;2.50;2.30;;;25.70;38.50;;;;;;5066425;28;45320;-70
2023/06/10 03:57:09;;;;;;;2.30;2.10;;;25.70;38.50;;;;;;5066572;28;45360;-70
2023/06/10 03:59:36;;;;;;;2.97;2.35;;;25.70;38.50;;;;;;5066590;28;45493;-70
2023/06/10 04:02:04;;;;;;;2.15;2.05;;;25.70;38.50;;;;;;5065978;28;46711;-69
2023/06/10 04:04:31;;;;;;;2.88;2.60;;;25.60;38.50;;;;;;5066361;28;45261;-70
2023/06/10 04:06:58;;;;;;;2.70;2.50;;;25.60;38.50;;;;;;5066075;28;45377;-70
2023/06/10 04:09:28;;;;;;;2.65;2.45;;;25.60;38.50;;;;;;5066287;28;45378;-69
2023/06/10 04:11:55;;;;;;;2.38;2.20;;;25.60;38.50;;;;;;5066267;28;45731;-69
2023/06/10 04:14:23;;;;;;;2.70;2.50;;;25.60;38.50;;;;;;5065981;28;45308;-69
2023/06/10 04:16:51;;;;;;;2.45;2.25;;;25.60;38.60;;;;;;5066087;28;45401;-68
2023/06/10 04:19:18;;;;;;;2.40;2.20;;;25.60;38.60;;;;;;5066068;28;45580;-70
2023/06/10 04:21:44;;;;;;;2.50;2.30;;;25.60;38.60;;;;;;5065849;28;45530;-69
2023/06/10 04:24:11;;;;;;;2.65;2.45;;;25.50;38.50;;;;;;5065766;28;45262;-69
2023/06/10 04:26:38;;;;;;;2.33;2.22;;;25.50;38.50;;;;;;5066124;28;45264;-69
2023/06/10 04:29:05;;;;;;;2.90;2.60;;;25.50;38.50;;;;;;5063317;28;45501;-69
2023/06/10 04:31:36;;;;;;;2.50;2.30;;;25.50;38.50;;;;;;5065604;28;45357;-69
2023/06/10 04:34:03;;;;;;;2.70;2.45;;;25.50;38.60;;;;;;5065692;28;45225;-69
2023/06/10 04:36:30;;;;;;;2.85;2.65;;;25.50;38.60;;;;;;5066123;28;45348;-69
2023/06/10 04:38:57;;;;;;;3.28;2.42;;;25.50;38.60;;;;;;5065797;28;45347;-69
2023/06/10 04:41:25;;;;;;;2.70;2.50;;;25.40;38.50;;;;;;5065717;28;45300;-70
2023/06/10 04:43:53;;;;;;;2.42;2.22;;;25.40;38.60;;;;;;5065556;28;45344;-70
2023/06/10 04:46:20;;;;;;;2.63;2.42;;;25.40;38.50;;;;;;5065421;28;45241;-70
2023/06/10 04:48:48;;;;;;;2.38;2.17;;;25.50;38.60;;;;;;5066000;28;45488;-69
2023/06/10 04:51:15;;;;;;;2.33;2.20;;;25.40;38.60;;;;;;5065288;28;48423;-70
2023/06/10 04:53:42;;;;;;;2.42;2.22;;;25.40;38.60;;;;;;5065399;28;45769;-70
2023/06/10 04:56:08;;;;;;;2.80;2.60;;;25.40;38.60;;;;;;5065708;28;45331;-70
2023/06/10 04:58:35;;;;;;;2.47;2.25;;;25.40;38.60;;;;;;5065835;28;45363;-69
2023/06/10 05:01:02;;;;;;;2.33;2.17;;;25.40;38.60;;;;;;5065025;28;45366;-69
2023/06/10 05:03:29;;;;;;;2.60;2.40;;;25.40;38.60;;;;;;5065224;28;45311;-69
2023/06/10 05:05:58;;;;;;;2.33;2.10;;;25.40;38.60;;;;;;5065545;28;45325;-69
2023/06/10 05:08:25;;;;;;;2.38;2.17;;;25.40;39.30;;;;;;5065416;28;45452;-69
2023/06/10 05:10:52;;;;;;;2.05;1.95;;;25.30;38.60;;;;;;5065318;28;45301;-70
2023/06/10 05:13:20;;;;;;;2.38;2.28;;;25.40;38.70;;;;;;5065200;28;45393;-70
2023/06/10 05:15:47;;;;;;;2.30;2.10;;;25.30;38.70;;;;;;5065313;28;45260;-69
2023/06/10 05:18:13;;;;;;;2.35;2.15;;;25.30;38.70;;;;;;5065215;28;45316;-69
2023/06/10 05:20:40;;;;;;;3.45;2.30;;;25.30;38.70;;;;;;5065182;28;46534;-70
2023/06/10 05:23:08;;;;;;;2.92;2.45;;;25.30;38.70;;;;;;5065053;28;45241;-69
2023/06/10 05:25:35;;;;;;;3.08;2.28;;;25.30;38.70;;;;;;5065253;28;45318;-69
2023/06/10 05:28:02;;;;;;;2.42;2.30;;;25.30;38.70;;;;;;5065257;28;45400;-69
2023/06/10 05:30:32;;;;;;;2.42;2.17;;;25.30;38.70;;;;;;5064851;28;46293;-69
2023/06/10 05:32:58;;;;;;;2.72;2.50;;;25.30;38.70;;;;;;5064940;28;45378;-70
2023/06/10 05:35:25;;;;;;;2.38;2.28;;;25.30;38.70;;;;;;5064914;28;45347;-69
2023/06/10 05:37:52;;;;;;;2.65;2.45;;;25.30;38.70;;;;;;5065200;28;45395;-70
2023/06/10 05:40:20;;;;;;;2.42;2.22;;;25.30;38.70;;;;;;5065015;28;46664;-70
2023/06/10 05:42:47;;;;;;;2.35;2.15;;;25.30;38.70;;;;;;5064987;28;45358;-70
2023/06/10 05:45:14;;;;;;;2.42;2.10;;;25.30;38.70;;;;;;5066848;28;45278;-70
2023/06/10 05:47:41;;;;;;;3.00;2.28;;;25.30;38.70;;;;;;5068479;28;45391;-70
2023/06/10 05:50:09;;;;;;;2.42;2.22;;;25.30;38.70;;;;;;5068244;28;46555;-70
2023/06/10 05:52:36;;;;;;;2.45;2.28;;;25.30;38.70;;;;;;5068287;28;45368;-70
2023/06/10 05:55:03;;;;;;;2.50;2.30;;;25.30;38.70;;;;;;5068216;28;45470;-70
2023/06/10 05:57:31;;;;;;;2.40;2.20;;;25.30;38.70;;;;;;5068524;28;45182;-71
2023/06/10 05:59:58;;;;;;;2.55;2.35;;;25.30;38.70;;;;;;5067808;28;47144;-70
2023/06/10 06:02:25;;;;;;;2.60;2.40;;;25.30;38.70;;;;;;5067864;28;45416;-71
2023/06/10 06:04:54;;;;;;;2.40;2.20;;;25.30;38.70;;;;;;5068064;28;45345;-70
2023/06/10 06:07:21;;;;;;;2.70;2.50;;;25.30;38.70;;;;;;5068003;28;45385;-70
2023/06/10 06:09:48;;;;;;;2.53;2.33;;;25.30;38.70;;;;;;5067847;28;45541;-69
2023/06/10 06:12:15;;;;;;;2.40;2.20;;;25.30;38.80;;;;;;5067641;28;45245;-69
2023/06/10 06:14:44;;;;;;;2.72;2.53;;;25.30;38.80;;;;;;5068119;28;45351;-69
2023/06/10 06:17:11;;;;;;;3.88;2.38;;;25.30;38.80;;;;;;5067974;28;45228;-69
2023/06/10 06:19:38;;;;;;;2.53;2.33;;;25.30;38.80;;;;;;5067458;28;45588;-70
2023/06/10 06:22:05;;;;;;;2.28;2.08;;;25.30;38.80;;;;;;5068003;28;45364;-70
2023/06/10 06:24:32;;;;;;;2.70;2.50;;;25.30;38.90;;;;;;5067674;28;45288;-70
2023/06/10 06:26:59;;;;;;;2.50;2.30;;;25.30;38.90;;;;;;5067825;28;45435;-70
2023/06/10 06:29:26;;;;;;;2.80;2.50;;;25.30;38.90;;;;;;5067380;28;45572;-70
2023/06/10 06:31:54;;;;;;;2.55;2.35;;;25.30;39.00;;;;;;5067536;28;45341;-69
2023/06/10 06:34:21;;;;;;;2.53;2.33;;;25.40;39.10;;;;;;5067446;28;45393;-69
2023/06/10 06:36:48;;;;;;;2.90;2.63;;;25.40;39.00;;;;;;5064954;28;45375;-69
2023/06/10 06:39:15;;;;;;;2.90;2.70;;;25.40;39.10;;;;;;5067128;28;46915;-70
2023/06/10 06:41:45;;;;;;;2.50;2.30;;;25.40;39.10;;;;;;5067546;28;45308;-70
2023/06/10 06:44:12;;;;;;;2.45;2.25;;;25.40;39.10;;;;;;5067714;28;45407;-70
2023/06/10 06:46:39;;;;;;;2.55;2.35;;;25.40;39.20;;;;;;5067623;28;45300;-71
2023/06/10 06:49:07;;;;;;;2.60;2.40;;;25.40;39.20;;;;;;5066801;27;46361;-70
2023/06/10 06:51:35;;;;;;;2.80;2.60;;;25.40;39.30;;;;;;5067359;28;45304;-70
2023/06/10 06:54:02;;;;;;;2.33;2.22;;;25.40;39.20;;;;;;5067304;28;45355;-70
2023/06/10 06:56:28;;;;;;;2.50;2.30;;;25.40;39.30;;;;;;5067067;28;45357;-71
2023/06/10 06:58:55;;;;;;;2.97;2.53;;;25.40;39.30;;;;;;5066707;28;45445;-70
2023/06/10 07:01:22;;;;;;;2.50;2.30;;;25.40;39.40;;;;;;5067023;28;45347;-70
2023/06/10 07:03:49;;;;;;;2.88;2.65;;;25.40;39.40;;;;;;5066792;28;45436;-70
2023/06/10 07:06:17;;;;;;;2.53;2.25;;;25.40;39.40;;;;;;5067215;28;45225;-70
2023/06/10 07:08:44;;;;;;;2.40;2.30;;;25.40;39.30;;;;;;5066631;28;46380;-70
2023/06/10 07:11:11;;;;;;;2.33;2.22;;;25.50;39.40;;;;;;5066825;28;45269;-70
2023/06/10 07:13:38;;;;;;;2.28;2.17;;;25.50;39.30;;;;;;5067047;28;45311;-71
2023/06/10 07:16:05;;;;;;;2.75;2.55;;;25.60;39.30;;;;;;5067025;28;45392;-71
2023/06/10 07:18:32;;;;;;;2.30;2.10;;;25.60;39.30;;;;;;5066735;28;46464;-70
2023/06/10 07:20:59;;;;;;;2.42;2.22;;;25.60;39.30;;;;;;5066609;28;45403;-72
2023/06/10 07:23:27;;;;;;;3.70;2.38;;;25.60;39.30;;;;;;5067149;28;45311;-74
2023/06/10 07:25:54;;;;;;;3.67;2.40;;;25.60;39.70;;;;;;5066742;28;45380;-69
2023/06/10 07:28:21;;;;;;;2.90;2.53;;;25.60;40.00;;;;;;5066202;28;47219;-70
2023/06/10 07:30:47;;;;;;;5.35;2.70;;;25.70;39.80;;;;;;5066596;28;45252;-70
2023/06/10 07:33:14;;;;;;;5.80;2.95;;;25.70;40.10;;;;;;5066393;28;45441;-70
2023/06/10 07:35:42;;;;;;;3.60;2.90;;;25.70;40.30;;;;;;5066665;28;45669;-71
2023/06/10 07:38:09;;;;;;;40.30;11.27;;;25.80;41.60;;;;;;5066000;28;46388;-67
2023/06/10 07:40:38;;;;;;;17.90;5.75;;;25.80;43.60;;;;;;5066333;28;45372;-69
2023/06/10 07:43:04;;;;;;;10.88;4.15;;;25.90;43.50;;;;;;5066482;28;45309;-67
2023/06/10 07:45:31;;;;;;;5.53;3.38;;;26.00;43.70;;;;;;5066710;28;45331;-67
2023/06/10 07:47:58;;;;;;;9.85;4.03;;;26.10;42.80;;;;;;5066082;28;46452;-74
2023/06/10 07:50:25;;;;;;;6.93;3.60;;;26.10;43.00;;;;;;5066551;28;45301;-71
2023/06/10 07:52:52;;;;;;;5.38;3.30;;;26.30;42.90;;;;;;5066024;28;45359;-71
2023/06/10 07:55:19;;;;;;;6.55;3.47;;;26.30;42.20;;;;;;5066411;28;45404;-69
2023/06/10 07:57:47;;;;;;;10.73;3.50;;;26.40;41.80;;;;;;5065968;28;45348;-69
2023/06/10 08:00:15;;;;;;;5.35;2.78;;;26.50;42.70;;;;;;5063269;28;45250;-70
2023/06/10 08:02:42;;;;;;;5.30;3.58;;;26.50;42.70;;;;;;5065786;28;45307;-70
2023/06/10 08:05:09;;;;;;;12.07;3.35;;;26.60;42.40;;;;;;5066028;28;45422;-71
2023/06/10 08:07:36;;;;;;;4.53;3.15;;;26.60;42.60;;;;;;5064771;28;46715;-71
2023/06/10 08:10:03;;;;;;;12.18;3.20;;;26.60;42.50;;;;;;5065635;28;45357;-68
2023/06/10 08:12:30;;;;;;;3.53;3.05;;;26.70;42.90;;;;;;5065800;28;45358;-70
2023/06/10 08:14:59;;;;;;;4.80;3.20;;;26.70;42.80;;;;;;5066009;28;45353;-72
2023/06/10 08:17:25;;;;;;;5.35;2.95;;;26.80;43.50;;;;;;5066239;28;45436;-72
2023/06/10 08:19:52;;;;;;;2.92;2.67;;;26.90;45.00;;;;;;5065534;28;45311;-70
2023/06/10 08:22:19;;;;;;;3.53;3.15;;;27.00;44.30;;;;;;5065526;28;45329;-70
2023/06/10 08:24:46;;;;;;;16.15;3.67;;;27.10;42.40;;;;;;5065782;28;45324;-69
2023/06/10 08:27:12;;;;;;;6.43;3.10;;;27.10;43.50;;;;;;5065228;28;46401;-71
2023/06/10 08:29:40;;;;;;;3.20;2.90;;;27.20;43.50;;;;;;5065397;28;45368;-71
2023/06/10 08:32:08;;;;;;;3.33;3.03;;;27.30;43.40;;;;;;5065649;28;45336;-71
2023/06/10 08:34:36;;;;;;;3.17;2.88;;;27.30;42.70;;;;;;5065807;28;45303;-72
2023/06/10 08:37:03;;;;;;;5.55;2.85;;;27.40;42.90;;;;;;5065222;28;45634;-70
2023/06/10 08:39:31;;;;;;;3.90;3.15;;;27.50;42.00;;;;;;5065140;28;45377;-71
2023/06/10 08:42:07;;;;;;;7.55;3.20;;;27.60;42.50;;;;;;5065263;28;45273;-74
2023/06/10 08:44:37;;;;;;;3.95;2.92;;;27.60;41.50;;;;;;5065721;28;45383;-71
2023/06/10 08:47:08;;;;;;;6.38;2.95;;;27.70;41.50;;;;;;5064931;28;45450;-69
2023/06/10 08:49:38;;;;;;;5.82;3.30;;;27.70;41.30;;;;;;5064983;28;45323;-70
2023/06/10 08:52:05;;;;;;;9.45;3.55;;;27.80;41.00;;;;;;5065425;28;45382;-71
2023/06/10 08:54:34;;;;;;;7.43;4.32;;;27.80;42.10;;;;;;5065476;28;45130;-72
2023/06/10 08:57:01;;;;;;;10.70;3.78;;;27.80;41.80;;;;;;5065291;28;46384;-75
2023/06/10 08:59:28;;;;;;;14.73;4.28;;;27.80;41.50;;;;;;5064976;28;45294;-73
2023/06/10 09:01:54;;;;;;;8.70;3.42;;;27.90;42.20;;;;;;5065273;28;45382;-68
2023/06/10 09:04:21;;;;;;;4.93;3.50;;;27.90;42.70;;;;;;5064192;28;45517;-70
2023/06/10 09:06:50;;;;;;;7.15;3.70;;;28.00;42.40;;;;;;5064252;28;46719;-71
2023/06/10 09:09:17;;;;;;;6.40;3.90;;;28.00;41.50;;;;;;5060751;28;45501;-71
2023/06/10 09:11:44;;;;;;;7.65;4.40;;;28.00;41.80;;;;;;5065096;28;45344;-70
2023/06/10 09:14:11;;;;;;;6.38;3.70;;;28.10;42.90;;;;;;5048208;28;45485;-71
2023/06/10 09:16:39;;;;;;;5.05;3.90;;;28.10;42.70;;;;;;5063874;28;46795;-71
2023/06/10 09:19:07;;;;;;;8.13;3.90;;;28.20;42.50;;;;;;5066592;28;45379;-70
2023/06/10 09:21:35;;;;;;;4.25;3.20;;;28.30;42.90;;;;;;5068229;28;45363;-70
2023/06/10 09:24:04;;;;;;;12.07;3.72;;;28.40;41.60;;;;;;5068644;28;45333;-70
2023/06/10 09:26:31;;;;;;;5.45;3.90;;;28.40;41.70;;;;;;5067965;28;46654;-72
2023/06/10 09:29:03;;;;;;;7.50;4.13;;;28.40;42.00;;;;;;5068271;28;45348;-75
2023/06/10 09:31:30;;;;;;;13.73;4.47;;;28.40;42.20;;;;;;5068617;28;45292;-72
2023/06/10 09:34:05;;;;;;;5.18;4.00;;;28.40;42.60;;;;;;5068410;28;45395;-68
2023/06/10 09:36:32;;;;;;;5.53;4.10;;;28.50;43.20;;;;;;5068307;27;45476;-71
2023/06/10 09:38:59;;;;;;;7.38;4.20;;;28.50;42.30;;;;;;5068028;28;45424;-70
2023/06/10 09:41:34;;;;;;;5.78;3.83;;;28.60;42.10;;;;;;5068110;28;45356;-69
2023/06/10 09:44:01;;;;;;;7.70;3.90;;;28.60;41.60;;;;;;5068382;28;45250;-71
2023/06/10 09:46:32;;;;;;;7.40;4.45;;;28.60;41.60;;;;;;5067725;28;46364;-71
2023/06/10 09:49:00;;;;;;;4.90;4.35;;;28.70;41.50;;;;;;5067877;27;45374;-72
2023/06/10 09:51:27;;;;;;;4.82;4.43;;;28.70;41.40;;;;;;5067980;28;45388;-71
2023/06/10 09:53:53;;;;;;;5.82;4.03;;;28.70;41.40;;;;;;5068618;28;45428;-76
2023/06/10 09:56:20;;;;;;;6.57;4.43;;;28.80;42.80;;;;;;5067754;28;45265;-71
2023/06/10 09:58:50;;;;;;;4.38;3.97;;;28.90;42.70;;;;;;5067710;27;45416;-69
2023/06/10 10:01:17;;;;;;;5.55;3.72;;;29.00;42.80;;;;;;5067659;28;45292;-70
2023/06/10 10:03:47;;;;;;;4.00;3.60;;;29.00;41.80;;;;;;5068132;28;45311;-69
2023/06/10 10:06:15;;;;;;;7.10;4.07;;;29.10;41.70;;;;;;5067536;28;46765;-72
2023/06/10 10:08:43;;;;;;;4.15;3.75;;;29.10;41.90;;;;;;5067300;28;45420;-73
2023/06/10 10:11:10;;;;;;;8.63;4.32;;;29.20;41.50;;;;;;5067743;28;45356;-71
2023/06/10 10:13:36;;;;;;;7.22;4.70;;;29.20;41.40;;;;;;5067863;28;45428;-70
2023/06/10 10:16:07;;;;;;;5.32;4.05;;;29.20;41.70;;;;;;5067440;28;45435;-71
2023/06/10 10:18:34;;;;;;;6.00;4.57;;;29.30;41.50;;;;;;5067580;28;45284;-73
2023/06/10 10:21:02;;;;;;;5.57;4.68;;;29.30;41.50;;;;;;5067613;28;45343;-70
2023/06/10 10:23:32;;;;;;;6.63;4.35;;;29.30;41.30;;;;;;5068099;28;45398;-72
2023/06/10 10:26:00;;;;;;;5.72;4.47;;;29.40;41.00;;;;;;5067271;28;46653;-71
2023/06/10 10:28:35;;;;;;;5.47;4.35;;;29.40;41.10;;;;;;5067158;28;45638;-71
2023/06/10 10:31:11;;;;;;;12.32;4.47;;;29.40;41.40;;;;;;5066896;28;45518;-71
2023/06/10 10:33:43;;;;;;;5.80;4.88;;;29.50;41.20;;;;;;5062660;28;45489;-72
2023/06/10 10:36:10;;;;;;;9.73;4.13;;;29.50;41.10;;;;;;5050745;28;46673;-74
2023/06/10 10:38:37;;;;;;;5.30;4.03;;;29.60;41.80;;;;;;5066759;28;45380;-72
2023/06/10 10:41:04;;;;;;;7.18;4.90;;;29.60;41.20;;;;;;5066921;27;45472;-71
2023/06/10 10:43:30;;;;;;;6.63;4.20;;;29.60;42.40;;;;;;5063189;28;45501;-71
2023/06/10 10:46:00;;;;;;;10.57;4.90;;;29.60;41.30;;;;;;5066435;28;45544;-71
2023/06/10 10:48:29;;;;;;;11.45;5.50;;;29.70;41.90;;;;;;5066444;28;45429;-69
2023/06/10 10:50:58;;;;;;;7.47;4.25;;;29.80;41.40;;;;;;5056528;28;45391;-73
2023/06/10 10:53:25;;;;;;;4.60;4.00;;;29.70;41.50;;;;;;5066908;28;45299;-71
2023/06/10 10:55:59;;;;;;;8.80;4.43;;;29.80;41.60;;;;;;5062090;28;45962;-76
2023/06/10 10:58:26;;;;;;;6.28;4.70;;;29.90;41.70;;;;;;5062311;28;45412;-71
2023/06/10 11:00:53;;;;;;;5.38;4.88;;;29.90;42.50;;;;;;5054747;28;45498;-71
2023/06/10 11:03:20;;;;;;;5.55;4.13;;;30.10;42.50;;;;;;5052886;28;45944;-75
2023/06/10 11:05:49;;;;;;;9.43;4.00;;;30.10;42.40;;;;;;5056055;28;46425;-72
2023/06/10 11:08:16;;;;;;;4.72;4.30;;;30.20;42.90;;;;;;5059140;28;45558;-72
2023/06/10 11:10:51;;;;;;;6.90;4.40;;;30.30;41.40;;;;;;5060146;28;45510;-71
2023/06/10 11:13:20;;;;;;;5.40;4.82;;;30.30;41.20;;;;;;5067157;28;45415;-71
2023/06/10 11:15:47;;;;;;;5.85;4.13;;;30.40;41.00;;;;;;5066097;28;47299;-71
2023/06/10 11:18:24;;;;;;;4.53;4.13;;;30.40;40.30;;;;;;5065382;28;45334;-72
2023/06/10 11:21:00;;;;;;;7.60;4.93;;;30.40;39.50;;;;;;5063799;28;45513;-72
2023/06/10 11:23:42;;;;;;;5.72;5.13;;;30.40;39.20;;;;;;5064909;28;45475;-71
2023/06/10 11:26:16;;;;;;;5.30;4.88;;;30.40;38.60;;;;;;5065819;28;45476;-71
2023/06/10 11:28:43;;;;;;;5.95;5.22;;;30.30;38.10;;;;;;5065847;28;45250;-72
2023/06/10 11:31:10;;;;;;;5.45;4.95;;;30.20;37.90;;;;;;5066562;28;45303;-72
2023/06/10 11:33:38;;;;;;;6.38;5.05;;;30.10;37.90;;;;;;5066405;28;45502;-73
2023/06/10 11:36:09;;;;;;;5.72;5.13;;;30.10;38.40;;;;;;5065965;28;46395;-72
2023/06/10 11:38:36;;;;;;;5.68;5.18;;;30.10;38.20;;;;;;5065638;28;45435;-69
2023/06/10 11:41:03;;;;;;;5.55;5.05;;;30.10;38.00;;;;;;5065606;28;45509;-71
2023/06/10 11:43:29;;;;;;;10.10;5.70;;;30.00;37.90;;;;;;5065234;28;45501;-71
2023/06/10 11:45:57;;;;;;;5.30;4.75;;;30.00;38.90;;;;;;5065359;28;46722;-70
2023/06/10 11:48:23;;;;;;;6.00;5.03;;;29.90;38.20;;;;;;5066057;28;45324;-71
2023/06/10 11:50:50;;;;;;;5.32;4.93;;;30.00;38.30;;;;;;5065540;28;45335;-71
2023/06/10 11:53:18;;;;;;;12.65;5.43;;;30.20;39.40;;;;;;5065924;28;45548;-69
2023/06/10 11:55:46;;;;;;;8.77;5.10;;;30.30;37.90;;;;;;5065541;28;46418;-69
2023/06/10 11:58:16;;;;;;;8.27;4.85;;;30.40;38.30;;;;;;5065421;28;45320;-73
2023/06/10 12:00:49;;;;;;;5.38;4.95;;;30.50;37.50;;;;;;5063623;28;45494;-68
2023/06/10 12:03:26;;;;;;;5.43;5.03;;;30.50;38.00;;;;;;5135940;27;45398;-68
2023/06/10 12:06:02;;;;;;;7.63;5.20;;;30.50;37.20;;;;;;5125058;27;45306;-70
2023/06/10 12:08:28;;;;;;;5.00;4.50;;;30.70;37.10;;;;;;5122921;27;45329;-66
2023/06/10 12:10:55;;;;;;;5.07;4.65;;;30.70;36.40;;;;;;5122742;27;45153;-69
2023/06/10 12:13:23;;;;;;;5.63;4.43;;;30.60;36.40;;;;;;5120095;27;45355;-67
2023/06/10 12:15:50;;;;;;;5.78;4.80;;;30.60;37.00;;;;;;5122864;27;45386;-71
2023/06/10 12:18:19;;;;;;;5.10;4.70;;;30.70;36.50;;;;;;5122932;27;45381;-69
2023/06/10 12:20:48;;;;;;;4.78;4.38;;;30.80;36.70;;;;;;5123330;27;45303;-67
2023/06/10 12:23:18;;;;;;;4.90;4.40;;;30.80;37.60;;;;;;5117015;27;46653;-69
2023/06/10 12:25:51;;;;;;;4.85;4.40;;;30.80;36.70;;;;;;5121944;27;45412;-69
2023/06/10 12:28:19;;;;;;;11.00;9.05;;;30.70;36.60;;;;;;5116819;27;45335;-68
2023/06/10 12:30:45;;;;;;;7.28;4.95;;;30.80;37.50;;;;;;5119389;27;45437;-69
2023/06/10 12:33:17;;;;;;;4.88;4.40;;;30.70;37.30;;;;;;5113127;27;46507;-70
2023/06/10 12:35:49;;;;;;;12.40;5.03;;;30.70;36.30;;;;;;5118387;27;45340;-69
2023/06/10 12:38:22;;;;;;;4.85;4.47;;;30.70;36.50;;;;;;5118404;27;45503;-72
2023/06/10 12:40:48;;;;;;;5.10;4.60;;;30.70;36.10;;;;;;5122283;27;45389;-69
2023/06/10 12:43:20;;;;;;;9.45;4.68;;;30.60;35.50;;;;;;5116603;27;46427;-69
2023/06/10 12:45:47;;;;;;;4.97;4.22;;;30.60;35.80;;;;;;5114507;27;45397;-70
2023/06/10 12:48:20;;;;;;;4.65;4.25;;;30.70;35.40;;;;;;5121041;27;45404;-71